sensor_id;sensor_type;location;lat;lon;timestamp;P1;durP1;ratioP1;P2;durP2;ratioP2
55316;SDS011;41178;48.956;8.130;2023-03-16T00:03:42;10.37;;;8.90;;
55316;SDS011;41178;48.956;8.130;2023-03-16T00:08:44;11.80;;;10.57;;
55316;SDS011;41178;48.956;8.130;2023-03-16T00:13:47;10.97;;;9.27;;
55316;SDS011;41178;48.956;8.130;2023-03-16T00:18:48;12.90;;;9.53;;
55316;SDS011;41178;48.956;8.130;2023-03-16T00:23:50;10.20;;;9.13;;
55316;SDS011;41178;48.956;8.130;2023-03-16T00:28:53;11.33;;;9.57;;
55316;SDS011;41178;48.956;8.130;2023-03-16T00:33:55;10.00;;;9.10;;
55316;SDS011;41178;48.956;8.130;2023-03-16T00:38:57;10.30;;;8.93;;
55316;SDS011;41178;48.956;8.130;2023-03-16T00:43:58;12.33;;;10.27;;
55316;SDS011;41178;48.956;8.130;2023-03-16T00:49:00;10.00;;;9.00;;
55316;SDS011;41178;48.956;8.130;2023-03-16T00:54:03;14.83;;;9.50;;
55316;SDS011;41178;48.956;8.130;2023-03-16T00:59:05;11.33;;;10.13;;
55316;SDS011;41178;48.956;8.130;2023-03-16T01:04:09;11.97;;;9.77;;
55316;SDS011;41178;48.956;8.130;2023-03-16T01:09:11;16.73;;;9.90;;
55316;SDS011;41178;48.956;8.130;2023-03-16T01:14:15;11.67;;;10.47;;
55316;SDS011;41178;48.956;8.130;2023-03-16T01:19:16;11.43;;;10.27;;
55316;SDS011;41178;48.956;8.130;2023-03-16T01:24:19;11.27;;;9.23;;
55316;SDS011;41178;48.956;8.130;2023-03-16T01:29:20;11.57;;;8.87;;
55316;SDS011;41178;48.956;8.130;2023-03-16T01:34:22;10.60;;;9.50;;
55316;SDS011;41178;48.956;8.130;2023-03-16T01:39:24;13.70;;;9.70;;
55316;SDS011;41178;48.956;8.130;2023-03-16T01:44:26;12.03;;;10.23;;
55316;SDS011;41178;48.956;8.130;2023-03-16T01:49:32;10.53;;;9.43;;
55316;SDS011;41178;48.956;8.130;2023-03-16T01:54:47;13.20;;;10.70;;
55316;SDS011;41178;48.956;8.130;2023-03-16T02:00:08;11.90;;;10.33;;
55316;SDS011;41178;48.956;8.130;2023-03-16T02:05:32;14.37;;;11.33;;
55316;SDS011;41178;48.956;8.130;2023-03-16T02:10:42;13.07;;;11.00;;
55316;SDS011;41178;48.956;8.130;2023-03-16T02:15:45;14.87;;;11.80;;
55316;SDS011;41178;48.956;8.130;2023-03-16T02:26:36;13.40;;;11.83;;
55316;SDS011;41178;48.956;8.130;2023-03-16T02:31:45;13.93;;;12.33;;
55316;SDS011;41178;48.956;8.130;2023-03-16T02:36:48;13.67;;;12.27;;
55316;SDS011;41178;48.956;8.130;2023-03-16T02:41:52;13.67;;;12.27;;
55316;SDS011;41178;48.956;8.130;2023-03-16T02:46:55;13.43;;;11.73;;
55316;SDS011;41178;48.956;8.130;2023-03-16T02:52:00;14.43;;;11.80;;
55316;SDS011;41178;48.956;8.130;2023-03-16T02:57:02;13.70;;;12.10;;
55316;SDS011;41178;48.956;8.130;2023-03-16T03:02:04;15.57;;;12.90;;
55316;SDS011;41178;48.956;8.130;2023-03-16T03:07:05;16.57;;;13.83;;
55316;SDS011;41178;48.956;8.130;2023-03-16T03:12:08;17.20;;;13.23;;
55316;SDS011;41178;48.956;8.130;2023-03-16T03:17:10;15.20;;;12.77;;
55316;SDS011;41178;48.956;8.130;2023-03-16T03:22:13;14.93;;;12.97;;
55316;SDS011;41178;48.956;8.130;2023-03-16T03:27:19;15.10;;;12.13;;
55316;SDS011;41178;48.956;8.130;2023-03-16T03:32:22;16.07;;;12.33;;
55316;SDS011;41178;48.956;8.130;2023-03-16T03:37:24;16.20;;;13.00;;
55316;SDS011;41178;48.956;8.130;2023-03-16T03:42:26;17.13;;;13.70;;
55316;SDS011;41178;48.956;8.130;2023-03-16T03:47:28;16.73;;;14.30;;
55316;SDS011;41178;48.956;8.130;2023-03-16T03:52:29;16.70;;;14.90;;
55316;SDS011;41178;48.956;8.130;2023-03-16T03:57:31;19.00;;;16.50;;
55316;SDS011;41178;48.956;8.130;2023-03-16T04:02:33;22.53;;;17.33;;
55316;SDS011;41178;48.956;8.130;2023-03-16T04:07:35;19.73;;;15.87;;
55316;SDS011;41178;48.956;8.130;2023-03-16T04:12:37;17.97;;;15.07;;
55316;SDS011;41178;48.956;8.130;2023-03-16T04:17:38;25.63;;;18.40;;
55316;SDS011;41178;48.956;8.130;2023-03-16T04:22:41;39.47;;;19.30;;
55316;SDS011;41178;48.956;8.130;2023-03-16T04:27:43;29.70;;;19.07;;
55316;SDS011;41178;48.956;8.130;2023-03-16T04:32:47;22.77;;;17.03;;
55316;SDS011;41178;48.956;8.130;2023-03-16T04:37:48;20.43;;;17.47;;
55316;SDS011;41178;48.956;8.130;2023-03-16T04:42:51;21.50;;;17.27;;
55316;SDS011;41178;48.956;8.130;2023-03-16T04:47:52;20.80;;;17.73;;
55316;SDS011;41178;48.956;8.130;2023-03-16T04:52:54;22.23;;;18.43;;
55316;SDS011;41178;48.956;8.130;2023-03-16T04:57:56;24.93;;;19.43;;
55316;SDS011;41178;48.956;8.130;2023-03-16T05:05:32;24.97;;;19.50;;
55316;SDS011;41178;48.956;8.130;2023-03-16T05:10:35;23.47;;;19.47;;
55316;SDS011;41178;48.956;8.130;2023-03-16T05:15:37;24.57;;;20.30;;
55316;SDS011;41178;48.956;8.130;2023-03-16T05:20:38;27.73;;;20.57;;
55316;SDS011;41178;48.956;8.130;2023-03-16T05:25:41;24.27;;;20.33;;
55316;SDS011;41178;48.956;8.130;2023-03-16T05:30:44;29.33;;;21.03;;
55316;SDS011;41178;48.956;8.130;2023-03-16T05:35:46;25.17;;;21.70;;
55316;SDS011;41178;48.956;8.130;2023-03-16T05:40:48;28.97;;;22.43;;
55316;SDS011;41178;48.956;8.130;2023-03-16T05:45:53;28.27;;;20.97;;
55316;SDS011;41178;48.956;8.130;2023-03-16T05:50:55;28.07;;;23.20;;
55316;SDS011;41178;48.956;8.130;2023-03-16T05:55:57;33.97;;;25.00;;
55316;SDS011;41178;48.956;8.130;2023-03-16T06:00:59;26.37;;;21.37;;
55316;SDS011;41178;48.956;8.130;2023-03-16T06:06:02;24.07;;;18.83;;
55316;SDS011;41178;48.956;8.130;2023-03-16T06:11:04;24.03;;;18.80;;
55316;SDS011;41178;48.956;8.130;2023-03-16T06:16:06;25.67;;;17.83;;
55316;SDS011;41178;48.956;8.130;2023-03-16T06:21:08;23.17;;;19.07;;
55316;SDS011;41178;48.956;8.130;2023-03-16T06:26:10;22.83;;;18.87;;
55316;SDS011;41178;48.956;8.130;2023-03-16T06:31:11;30.47;;;19.87;;
55316;SDS011;41178;48.956;8.130;2023-03-16T06:36:14;26.50;;;21.43;;
55316;SDS011;41178;48.956;8.130;2023-03-16T06:41:15;26.07;;;19.83;;
55316;SDS011;41178;48.956;8.130;2023-03-16T06:46:17;26.57;;;22.03;;
55316;SDS011;41178;48.956;8.130;2023-03-16T06:51:19;29.03;;;22.27;;
55316;SDS011;41178;48.956;8.130;2023-03-16T06:56:21;27.10;;;22.77;;
55316;SDS011;41178;48.956;8.130;2023-03-16T07:01:22;24.20;;;20.27;;
55316;SDS011;41178;48.956;8.130;2023-03-16T07:06:24;25.40;;;20.70;;
55316;SDS011;41178;48.956;8.130;2023-03-16T07:11:26;30.50;;;23.10;;
55316;SDS011;41178;48.956;8.130;2023-03-16T07:16:28;26.97;;;20.77;;
55316;SDS011;41178;48.956;8.130;2023-03-16T07:21:30;28.13;;;21.17;;
55316;SDS011;41178;48.956;8.130;2023-03-16T07:26:39;27.27;;;22.23;;
55316;SDS011;41178;48.956;8.130;2023-03-16T07:31:41;29.60;;;21.60;;
55316;SDS011;41178;48.956;8.130;2023-03-16T07:36:43;28.23;;;22.27;;
55316;SDS011;41178;48.956;8.130;2023-03-16T07:41:45;28.47;;;22.73;;
55316;SDS011;41178;48.956;8.130;2023-03-16T07:46:46;28.10;;;21.93;;
55316;SDS011;41178;48.956;8.130;2023-03-16T07:51:48;23.10;;;19.30;;
55316;SDS011;41178;48.956;8.130;2023-03-16T07:56:50;24.27;;;20.47;;
55316;SDS011;41178;48.956;8.130;2023-03-16T08:01:51;24.17;;;19.83;;
55316;SDS011;41178;48.956;8.130;2023-03-16T08:06:53;25.80;;;20.27;;
55316;SDS011;41178;48.956;8.130;2023-03-16T08:12:01;23.63;;;19.07;;
55316;SDS011;41178;48.956;8.130;2023-03-16T08:17:05;22.90;;;19.03;;
55316;SDS011;41178;48.956;8.130;2023-03-16T08:22:10;23.33;;;19.37;;
55316;SDS011;41178;48.956;8.130;2023-03-16T08:27:12;22.83;;;18.90;;
55316;SDS011;41178;48.956;8.130;2023-03-16T08:32:16;18.17;;;15.87;;
55316;SDS011;41178;48.956;8.130;2023-03-16T08:37:18;18.13;;;16.23;;
55316;SDS011;41178;48.956;8.130;2023-03-16T08:42:20;17.57;;;14.93;;
55316;SDS011;41178;48.956;8.130;2023-03-16T08:47:22;18.17;;;15.33;;
55316;SDS011;41178;48.956;8.130;2023-03-16T08:52:24;16.93;;;14.27;;
55316;SDS011;41178;48.956;8.130;2023-03-16T08:57:26;18.23;;;13.43;;
55316;SDS011;41178;48.956;8.130;2023-03-16T09:02:28;16.50;;;13.63;;
55316;SDS011;41178;48.956;8.130;2023-03-16T09:07:29;14.13;;;12.20;;
55316;SDS011;41178;48.956;8.130;2023-03-16T09:12:36;14.13;;;11.47;;
55316;SDS011;41178;48.956;8.130;2023-03-16T09:17:38;14.83;;;11.93;;
55316;SDS011;41178;48.956;8.130;2023-03-16T09:22:41;13.33;;;11.40;;
55316;SDS011;41178;48.956;8.130;2023-03-16T09:27:43;10.00;;;9.00;;
55316;SDS011;41178;48.956;8.130;2023-03-16T09:32:45;9.27;;;8.33;;
55316;SDS011;41178;48.956;8.130;2023-03-16T09:37:49;10.80;;;8.30;;
55316;SDS011;41178;48.956;8.130;2023-03-16T09:48:26;8.53;;;6.90;;
55316;SDS011;41178;48.956;8.130;2023-03-16T09:53:33;10.27;;;7.77;;
55316;SDS011;41178;48.956;8.130;2023-03-16T09:58:39;8.30;;;6.67;;
55316;SDS011;41178;48.956;8.130;2023-03-16T10:14:46;6.57;;;5.53;;
55316;SDS011;41178;48.956;8.130;2023-03-16T10:19:53;8.43;;;4.97;;
55316;SDS011;41178;48.956;8.130;2023-03-16T10:30:14;6.07;;;5.47;;
55316;SDS011;41178;48.956;8.130;2023-03-16T10:40:56;4.97;;;4.27;;
55316;SDS011;41178;48.956;8.130;2023-03-16T10:46:01;4.17;;;3.67;;
55316;SDS011;41178;48.956;8.130;2023-03-16T10:51:05;4.80;;;4.20;;
55316;SDS011;41178;48.956;8.130;2023-03-16T10:56:19;4.40;;;3.90;;
55316;SDS011;41178;48.956;8.130;2023-03-16T11:06:32;5.67;;;4.30;;
55316;SDS011;41178;48.956;8.130;2023-03-16T11:11:34;4.47;;;3.90;;
55316;SDS011;41178;48.956;8.130;2023-03-16T11:21:52;4.37;;;3.90;;
55316;SDS011;41178;48.956;8.130;2023-03-16T11:27:01;4.10;;;3.40;;
55316;SDS011;41178;48.956;8.130;2023-03-16T11:32:13;4.00;;;3.37;;
55316;SDS011;41178;48.956;8.130;2023-03-16T11:58:13;3.53;;;3.23;;
55316;SDS011;41178;48.956;8.130;2023-03-16T12:03:40;3.13;;;2.80;;
55316;SDS011;41178;48.956;8.130;2023-03-16T12:14:24;4.30;;;3.30;;
55316;SDS011;41178;48.956;8.130;2023-03-16T12:24:42;3.60;;;2.50;;
55316;SDS011;41178;48.956;8.130;2023-03-16T12:29:50;3.47;;;2.10;;
55316;SDS011;41178;48.956;8.130;2023-03-16T12:40:08;2.70;;;2.50;;
55316;SDS011;41178;48.956;8.130;2023-03-16T12:50:45;2.40;;;2.20;;
55316;SDS011;41178;48.956;8.130;2023-03-16T12:55:50;3.20;;;1.87;;
55316;SDS011;41178;48.956;8.130;2023-03-16T13:00:56;1.90;;;1.77;;
55316;SDS011;41178;48.956;8.130;2023-03-16T13:05:59;3.17;;;2.40;;
55316;SDS011;41178;48.956;8.130;2023-03-16T13:11:07;3.13;;;2.53;;
55316;SDS011;41178;48.956;8.130;2023-03-16T13:16:21;3.20;;;2.73;;
55316;SDS011;41178;48.956;8.130;2023-03-16T13:21:35;2.67;;;2.17;;
55316;SDS011;41178;48.956;8.130;2023-03-16T13:26:45;3.30;;;2.13;;
55316;SDS011;41178;48.956;8.130;2023-03-16T13:31:49;2.70;;;2.50;;
55316;SDS011;41178;48.956;8.130;2023-03-16T13:36:53;2.40;;;2.20;;
55316;SDS011;41178;48.956;8.130;2023-03-16T13:47:19;2.20;;;2.10;;
55316;SDS011;41178;48.956;8.130;2023-03-16T13:52:28;3.53;;;2.50;;
55316;SDS011;41178;48.956;8.130;2023-03-16T13:57:34;2.23;;;2.03;;
55316;SDS011;41178;48.956;8.130;2023-03-16T14:02:41;2.33;;;2.13;;
55316;SDS011;41178;48.956;8.130;2023-03-16T14:07:48;2.60;;;1.97;;
55316;SDS011;41178;48.956;8.130;2023-03-16T14:12:55;2.30;;;2.10;;
55316;SDS011;41178;48.956;8.130;2023-03-16T14:18:11;3.20;;;2.13;;
55316;SDS011;41178;48.956;8.130;2023-03-16T14:23:25;2.30;;;1.90;;
55316;SDS011;41178;48.956;8.130;2023-03-16T14:28:33;3.27;;;2.50;;
55316;SDS011;41178;48.956;8.130;2023-03-16T14:33:36;2.90;;;2.50;;
55316;SDS011;41178;48.956;8.130;2023-03-16T14:38:42;2.57;;;1.70;;
55316;SDS011;41178;48.956;8.130;2023-03-16T14:43:55;2.57;;;2.07;;
55316;SDS011;41178;48.956;8.130;2023-03-16T14:49:06;2.87;;;2.57;;
55316;SDS011;41178;48.956;8.130;2023-03-16T14:54:17;3.17;;;2.10;;
55316;SDS011;41178;48.956;8.130;2023-03-16T14:59:22;2.00;;;1.70;;
55316;SDS011;41178;48.956;8.130;2023-03-16T15:04:26;2.30;;;2.00;;
55316;SDS011;41178;48.956;8.130;2023-03-16T15:09:38;2.13;;;2.03;;
55316;SDS011;41178;48.956;8.130;2023-03-16T15:14:44;2.93;;;2.07;;
55316;SDS011;41178;48.956;8.130;2023-03-16T15:20:04;2.83;;;2.00;;
55316;SDS011;41178;48.956;8.130;2023-03-16T15:30:20;2.00;;;1.90;;
55316;SDS011;41178;48.956;8.130;2023-03-16T15:35:24;3.63;;;2.00;;
55316;SDS011;41178;48.956;8.130;2023-03-16T15:40:50;1.63;;;1.53;;
55316;SDS011;41178;48.956;8.130;2023-03-16T15:46:16;4.50;;;2.03;;
55316;SDS011;41178;48.956;8.130;2023-03-16T21:18:32;7.70;;;4.77;;
55316;SDS011;41178;48.956;8.130;2023-03-16T21:23:33;6.20;;;4.50;;
55316;SDS011;41178;48.956;8.130;2023-03-16T21:28:35;6.63;;;5.10;;
55316;SDS011;41178;48.956;8.130;2023-03-16T21:33:38;6.80;;;5.13;;
55316;SDS011;41178;48.956;8.130;2023-03-16T21:38:42;5.43;;;4.47;;
55316;SDS011;41178;48.956;8.130;2023-03-16T21:43:44;6.73;;;5.47;;
55316;SDS011;41178;48.956;8.130;2023-03-16T21:48:47;7.20;;;5.13;;
55316;SDS011;41178;48.956;8.130;2023-03-16T21:53:51;6.53;;;4.97;;
55316;SDS011;41178;48.956;8.130;2023-03-16T21:58:53;8.10;;;5.57;;
55316;SDS011;41178;48.956;8.130;2023-03-16T22:03:56;7.47;;;5.43;;
55316;SDS011;41178;48.956;8.130;2023-03-16T22:09:02;5.50;;;4.90;;
55316;SDS011;41178;48.956;8.130;2023-03-16T22:14:04;7.47;;;5.23;;
55316;SDS011;41178;48.956;8.130;2023-03-16T22:19:13;5.87;;;4.70;;
55316;SDS011;41178;48.956;8.130;2023-03-16T22:24:17;6.10;;;5.20;;
55316;SDS011;41178;48.956;8.130;2023-03-16T22:29:28;6.77;;;5.40;;
55316;SDS011;41178;48.956;8.130;2023-03-16T22:34:35;7.53;;;5.90;;
55316;SDS011;41178;48.956;8.130;2023-03-16T22:39:43;8.10;;;5.67;;
55316;SDS011;41178;48.956;8.130;2023-03-16T22:44:45;6.13;;;5.30;;
55316;SDS011;41178;48.956;8.130;2023-03-16T22:49:47;7.33;;;5.60;;
55316;SDS011;41178;48.956;8.130;2023-03-16T22:54:48;7.13;;;5.60;;
55316;SDS011;41178;48.956;8.130;2023-03-16T22:59:50;6.13;;;5.00;;
55316;SDS011;41178;48.956;8.130;2023-03-16T23:04:53;8.93;;;5.80;;
55316;SDS011;41178;48.956;8.130;2023-03-16T23:09:56;6.10;;;5.23;;
55316;SDS011;41178;48.956;8.130;2023-03-16T23:14:57;7.13;;;6.00;;
55316;SDS011;41178;48.956;8.130;2023-03-16T23:19:59;7.10;;;4.90;;
55316;SDS011;41178;48.956;8.130;2023-03-16T23:25:01;8.67;;;5.60;;
55316;SDS011;41178;48.956;8.130;2023-03-16T23:30:06;6.57;;;5.80;;
55316;SDS011;41178;48.956;8.130;2023-03-16T23:35:18;6.60;;;5.07;;
55316;SDS011;41178;48.956;8.130;2023-03-16T23:40:25;7.17;;;4.90;;
55316;SDS011;41178;48.956;8.130;2023-03-16T23:45:33;8.40;;;5.20;;
55316;SDS011;41178;48.956;8.130;2023-03-16T23:50:46;7.20;;;6.50;;
55316;SDS011;41178;48.956;8.130;2023-03-16T23:55:52;8.80;;;5.77;;
